Airfield :
LOGIN :

Register | Disclaimer

   EN    FR    IT 

 










Legend :    VFR   Marginal VFR   IFR   Intensive IFR   Very Intensive IFR
Visi :
Ceiling :
>= 8 km
>= 3000ft
5 to 8 km
1000 to 3000 ft
1500m to 5 km
500 to 1000 ft
800 to 1500m
200 to 500 ft
< 800m
< 200 ft
Symbols :   Thunderstorms  Fog  Heavy snow  Heavy precipitations  Wind > 20 kt
SIGMETs :     Misc.  Thunderstorms  Icing  Turbulence  Mountain Waves  Volcanic Ashes






- Airport Elevation : 3 ft
- IATA code : DHR


EHKD - Den Helder De Kooy

CURRENT METAR :
  • 221308Z AUTO 31004KT 270V340 9999 FEW005 SCT007 BKN008 08/08 Q1035 GRN 31004KT 8000 SCT005 BKN008 TEMPO 2000 BR SCT002 BKN003

EXPIRED METARs :
  • 221255Z AUTO 31003KT 260V360 9999 FEW007 BKN009 OVC010 09/08 Q1036 GRN 31004KT 8000 SCT005 BKN008 TEMPO 2000 BR SCT002 BKN003
  • 221241Z AUTO 32004KT 280V340 8000 BR FEW004 SCT007 OVC009 08/08 Q1036 GRN 31004KT 8000 SCT005 BKN008 TEMPO 2000 BR SCT002 BKN003
  • 221231Z AUTO 31003KT 280V010 7000 BR FEW007 SCT008 OVC010 08/08 Q1036 GRN 31004KT 8000 SCT005 BKN008 TEMPO 2000 BR SCT002 BKN003
  • 221217Z AUTO 31003KT 9000 BR FEW005 SCT009 OVC011 09/08 Q1036 GRN 31004KT 8000 SCT005 BKN008 TEMPO 2000 BR SCT002 BKN003
  • 221155Z AUTO 31003KT 280V350 9000 BR FEW006 OVC010 08/08 Q1036 GRN 31004KT 6000 FEW002 SCT003 BKN015 TEMPO 2000 BR SCT002 BKN003
  • 221139Z AUTO 32003KT 280V020 8000 BR FEW004 OVC010 08/08 Q1036 GRN 34004KT 6000 FEW002 SCT003 BKN015 TEMPO 2000 BR SCT002 BKN003
  • 221127Z AUTO 33003KT 290V360 8000 BR FEW004 SCT005 BKN006 09/08 Q1036 YLO 34004KT 6000 FEW002 SCT003 BKN015 TEMPO 2000 BR SCT002 BKN003
  • 221116Z AUTO VRB02KT 8000 BR SCT004 SCT005 OVC012 08/08 Q1036 YLO 34004KT 6000 FEW002 SCT003 BKN015 TEMPO 2000 BR SCT002 BKN003
  • 221111Z AUTO 33003KT 300V010 8000 BR FEW004 SCT005 OVC013 08/08 Q1036 YLO 34004KT 6000 FEW002 SCT003 BKN015 TEMPO 2000 BR SCT002 BKN003
  • 221059Z AUTO 34003KT 310V010 8000 BR ////// 08/08 Q1036 BLU 34004KT 6000 FEW002 SCT003 BKN015 TEMPO 2000 BR SCT002 BKN003
  • 221039Z AUTO 34004KT 290V020 6000 BR FEW003 BKN004 BKN006 08/08 Q1036 YLO 34004KT 6000 FEW002 SCT003 BKN015 TEMPO 2000 BR SCT002 BKN003
  • 221030Z AUTO 34004KT 300V010 5000 BR FEW002 BKN004 OVC013 08/08 Q1036 YLO 33005KT 2000 BR FEW002 BKN003 TEMPO 4500 FEW003 SCT008 BKN020
  • 221017Z AUTO 34004KT 300V030 5000 BR SCT004 BKN005 BKN006 08/08 Q1036 YLO 33005KT 3000 BR BKN003 OVC004 TEMPO 1500 DZ SCT002 BKN003

TAF TAF EHKD
Valid from the 22 at 10:00 until the 22 at 22:00 UTC


220938Z 2210/2222 30005KT 2000 BR BKN002
PROB30
TEMPO 2210/2217 3500 FEW002 SCT008 BKN020
BECMG 2213/2216 VRB03KT
BECMG 2217/2220 0800 FG



MET'MAP, your aeronautical weather chart ! - Copyright ORBIFLY December 2007 - Disclaimer

ORBIFLY MET'MAP TEAM :

Programming & Development : Alexandra Zaïnal
Concept & original design : Baudouin d'Aumeries
Assistance for programming : Marc-Olivier Méhu
Technical & hardware support : Manuel Goepfert

Contact : metmap@orbifly.com




SOURCES & CREDITS :

   NOAA